CHLT2: P.D.T.F Red R. Nr. Childress, TX

Data processed at Fri May 24 2019 23:50


All information presented herein is the property of the government of the United States of America and may be revised or deleted at any time without prior notice.
Dissemination of this information without the expressed written consent of the Public Affairs Office, Tulsa District U.S. Army Corps of Engineers is strictly prohibited.
These data are gathered electronically and, as presented, have not undergone any form of quality control. These data are not guaranteed to be valid or correct.
Go to home page.
Go to station list.
Go to home page.

Upstream stations:

Downstream station:
Previous Day
Next Day
Current Day
    
SHEF ID:       CHLT2     Pr Dog Twn Fk Red Rv nr Childres
STATION TYPE:  
Regulating: Stage =    10.00, Flow =     5289

               PRECIP PRECIP(A)     STAGE  RIV-FLOW  BAT-LOAD
                   in        in        ft       cfs      volt
              Ccp-Rev   Ccp-Rev   Ccp-Rev   Ccp-Rev   Ccp-Rev
(US/Central)
05/24 00:00      0.00      ----      8.57       116     12.89
05/24 01:00      0.00      ----      8.57       116     12.83
05/24 02:00      0.00      ----      8.57       116     12.83
05/24 03:00      0.04      ----      8.57       116     12.83
05/24 04:00      0.01      ----      8.57       116     12.83
05/24 05:00      0.00      ----      8.56       110     12.83
05/24 06:00      0.00      ----      8.57       116     12.83
05/24 07:00      0.00      ----      8.57       116     12.83
05/24 08:00      0.01      ----      8.58       122     12.83
05/24 09:00      0.00      ----      8.58       122     12.89
05/24 10:00      0.00      ----      8.61       142     13.07
05/24 11:00      0.00      ----      8.72       223     13.24
05/24 12:00      0.00      ----      8.76       258     13.36
05/24 13:00      0.00      ----      8.75       249     13.24
05/24 14:00      0.00      ----      8.74       240     13.30
05/24 15:00      0.00      ----      8.72       223     13.42
05/24 16:00      0.00      ----      8.75       249     13.24
05/24 17:00      0.00      ----      8.78       277     13.07
05/24 18:00      0.15      ----      8.77       267     13.00
05/24 19:00      0.04      ----      8.77       267     12.95
05/24 20:00      0.03      ----      8.75       249     12.95
05/24 21:00      0.11      ----      8.72       223     12.89
05/24 22:00      0.13      ----      8.67       184     12.89
05/24 23:00      ----      ----      ----      ----      ----